createdAt,value
2022-09-14T00:02:30.773Z,99221.16
2022-09-14T00:05:36.774Z,99223.56
2022-09-14T00:08:39.682Z,99213.84
2022-09-14T00:11:42.617Z,99207.81
2022-09-14T00:14:46.012Z,99211.41
2022-09-14T00:17:48.767Z,99209.47
2022-09-14T00:20:51.362Z,99222.56
2022-09-14T00:23:55.298Z,99221.13
2022-09-14T00:26:57.858Z,99207.44
2022-09-14T00:30:01.790Z,99211.56
2022-09-14T00:33:04.396Z,99211.34
2022-09-14T00:36:08.932Z,99213.31
2022-09-14T00:39:12.126Z,99215.31
2022-09-14T00:42:15.897Z,99215.31
2022-09-14T00:45:22.061Z,99226.63
2022-09-14T00:48:25.258Z,99216.16
2022-09-14T00:51:28.418Z,99211.72
2022-09-14T00:54:31.727Z,99205.38
2022-09-14T00:57:36.128Z,99194.59
2022-09-14T01:00:39.182Z,99185.03
2022-09-14T01:03:41.865Z,99188.34
2022-09-14T01:07:03.575Z,99188.28
2022-09-14T01:10:09.421Z,99186.22
2022-09-14T01:13:31.273Z,99193.22
2022-09-14T01:16:35.147Z,99187.16
2022-09-14T01:19:56.758Z,99184.41
2022-09-14T01:23:06.791Z,99183.16
2022-09-14T01:26:14.316Z,99194.59
2022-09-14T01:29:32.649Z,99184.41
2022-09-14T01:32:52.395Z,99179.69
2022-09-14T01:35:58.731Z,99177.06
2022-09-14T01:39:01.888Z,99183.38
2022-09-14T01:42:04.524Z,99176.41
2022-09-14T01:45:08.780Z,99169.63
2022-09-14T01:48:11.751Z,99155.03
2022-09-14T01:51:15.504Z,99151.91
2022-09-14T01:54:25.533Z,99140.88
2022-09-14T01:57:36.736Z,99148.63
2022-09-14T02:00:40.013Z,99143.50
2022-09-14T02:03:49.774Z,99139.16
2022-09-14T02:06:52.943Z,99142.81
2022-09-14T02:09:55.664Z,99139.16
2022-09-14T02:12:59.954Z,99128.62
2022-09-14T02:16:02.734Z,99128.12
2022-09-14T02:19:06.510Z,99125.13
2022-09-14T02:22:09.303Z,99116.91
2022-09-14T02:25:12.495Z,99110.03
2022-09-14T02:28:15.128Z,99106.78
2022-09-14T02:31:21.839Z,99098.06
2022-09-14T02:34:33.998Z,99103.38
2022-09-14T02:38:00.300Z,99095.06
2022-09-14T02:41:21.451Z,99096.00
2022-09-14T02:44:33.603Z,99087.69
2022-09-14T02:47:43.289Z,99093.09
2022-09-14T02:50:48.954Z,99080.59
2022-09-14T02:53:51.703Z,99093.50
2022-09-14T02:56:54.771Z,99095.78
2022-09-14T02:59:57.688Z,99080.19
2022-09-14T03:03:00.690Z,99076.66
2022-09-14T03:06:03.314Z,99076.00
2022-09-14T03:09:06.212Z,99070.94
2022-09-14T03:12:09.127Z,99066.22
2022-09-14T03:15:12.105Z,99062.41
2022-09-14T03:18:14.777Z,99072.41
2022-09-14T03:21:18.342Z,99067.28
2022-09-14T03:24:21.149Z,99064.22
2022-09-14T03:27:25.110Z,99077.31
2022-09-14T03:30:28.071Z,99067.12
2022-09-14T03:33:31.315Z,99063.53
2022-09-14T03:36:34.132Z,99068.16
2022-09-14T03:39:37.804Z,99067.28
2022-09-14T03:42:47.694Z,99062.94
2022-09-14T03:45:50.646Z,99067.53
2022-09-14T03:48:54.281Z,99061.22
2022-09-14T03:51:59.788Z,99054.63
2022-09-14T03:55:03.317Z,99061.47
2022-09-14T03:58:06.546Z,99065.25
2022-09-14T04:01:10.237Z,99065.94
2022-09-14T04:04:13.362Z,99065.34
2022-09-14T04:07:16.118Z,99057.81
2022-09-14T04:10:19.169Z,99056.87
2022-09-14T04:13:22.878Z,99056.16
2022-09-14T04:16:25.876Z,99050.09
2022-09-14T04:19:29.629Z,99054.81
2022-09-14T04:22:38.476Z,99046.00
2022-09-14T04:25:41.175Z,99059.22
2022-09-14T04:28:44.294Z,99063.59
2022-09-14T04:31:47.236Z,99054.03
2022-09-14T04:34:50.862Z,99049.72
2022-09-14T04:37:53.543Z,99036.31
2022-09-14T04:40:57.352Z,99039.22
2022-09-14T04:44:00.674Z,99037.59
2022-09-14T04:47:43.294Z,99040.09
2022-09-14T04:50:44.878Z,99045.59
2022-09-14T04:53:49.977Z,99040.63
2022-09-14T04:56:53.424Z,99053.97
2022-09-14T05:03:27.910Z,99057.06
2022-09-14T05:06:32.922Z,99062.84
2022-09-14T05:09:42.990Z,99046.78
2022-09-14T05:12:56.118Z,99046.16
2022-09-14T05:16:10.702Z,99053.97
2022-09-14T05:19:15.522Z,99044.19
2022-09-14T05:22:30.962Z,99036.59
2022-09-14T05:25:34.598Z,99026.59
2022-09-14T05:28:44.077Z,99026.37
2022-09-14T05:31:50.849Z,99042.75
2022-09-14T05:34:54.253Z,99047.59
2022-09-14T08:04:34.661Z,99022.38
2022-09-14T08:15:44.312Z,99001.00
2022-09-14T08:30:35.929Z,99019.25
2022-09-14T08:33:39.862Z,99008.22
2022-09-14T08:36:43.306Z,99029.03
2022-09-14T08:43:45.889Z,99031.16
2022-09-14T08:46:51.135Z,99034.66
2022-09-14T08:49:57.305Z,99049.66
2022-09-14T08:53:01.483Z,99061.56
2022-09-14T08:56:04.643Z,99051.22
2022-09-14T08:59:19.060Z,99050.16
2022-09-14T09:02:35.838Z,99043.75
2022-09-14T09:05:41.600Z,99061.81
2022-09-14T09:08:47.711Z,99058.09
2022-09-14T09:11:51.857Z,99058.41
2022-09-14T09:15:04.354Z,99061.00
2022-09-14T09:22:21.921Z,99064.81
2022-09-14T09:25:29.685Z,99076.59
2022-09-14T09:28:40.184Z,99075.81
2022-09-14T09:31:52.588Z,99078.94
2022-09-14T09:35:05.039Z,99072.69
2022-09-14T09:38:14.449Z,99096.44
2022-09-14T09:41:26.963Z,99087.72
2022-09-14T09:44:39.865Z,99083.56
2022-09-14T09:48:08.569Z,99073.69
2022-09-14T09:51:22.159Z,99076.72
2022-09-14T09:54:37.674Z,99073.25
2022-09-14T10:05:23.424Z,99064.84
2022-09-14T10:08:28.195Z,99060.94
2022-09-14T10:11:40.236Z,99057.66
2022-09-14T10:14:43.352Z,99053.59
2022-09-14T10:18:05.217Z,99049.16
2022-09-14T10:21:09.183Z,99040.31
2022-09-14T10:24:21.190Z,99040.41
2022-09-14T10:27:53.077Z,99026.37
2022-09-14T10:31:01.969Z,99021.03
2022-09-14T10:34:09.213Z,99017.22
2022-09-14T10:37:33.106Z,99005.94
2022-09-14T10:40:38.874Z,99010.63
2022-09-14T10:43:54.145Z,99010.63
2022-09-14T10:47:07.127Z,99002.37
2022-09-14T10:50:16.122Z,99004.91
2022-09-14T10:53:36.347Z,99015.63
2022-09-14T10:57:03.073Z,99015.97
2022-09-14T11:00:12.729Z,99010.31
2022-09-14T11:03:31.832Z,99000.25
2022-09-14T11:06:53.537Z,98997.59
2022-09-14T13:18:17.342Z,98984.78
2022-09-14T13:21:21.960Z,98994.84
2022-09-14T13:24:36.156Z,99001.28
2022-09-14T13:27:42.079Z,99001.06
2022-09-14T13:30:55.647Z,99005.41
2022-09-14T13:33:58.772Z,98986.13
2022-09-14T13:37:01.417Z,98964.31
2022-09-14T13:40:04.707Z,98955.13
2022-09-14T13:43:07.373Z,98948.50
2022-09-14T13:46:11.769Z,98946.28
2022-09-14T13:49:14.558Z,98939.88
2022-09-14T13:52:34.020Z,98918.28
2022-09-14T13:55:43.229Z,98902.53
2022-09-14T13:58:47.728Z,98889.16
2022-09-14T14:01:59.728Z,98873.06
2022-09-14T14:05:04.285Z,98849.78
2022-09-14T14:08:18.595Z,98844.41
2022-09-14T14:11:29.056Z,98821.78
2022-09-14T14:14:31.828Z,98816.03
2022-09-14T14:17:38.720Z,98824.72
2022-09-14T14:20:45.157Z,98849.81
2022-09-14T14:24:11.711Z,98861.69
2022-09-14T14:27:31.442Z,98876.94
2022-09-14T14:30:36.699Z,98881.13
2022-09-14T14:33:44.703Z,98859.38
2022-09-14T14:36:50.705Z,98839.38
2022-09-14T14:39:54.017Z,98832.16
2022-09-14T14:42:58.492Z,98835.34
2022-09-14T14:46:01.560Z,98830.56
2022-09-14T14:49:04.566Z,98836.81
2022-09-14T14:52:07.761Z,98829.81
2022-09-14T14:55:10.973Z,98823.69
2022-09-14T15:09:24.651Z,98830.84
2022-09-14T15:12:27.905Z,98826.78
2022-09-14T15:15:31.166Z,98842.19
2022-09-14T15:18:36.044Z,98847.78
2022-09-14T15:21:42.767Z,98835.63
2022-09-14T15:24:49.090Z,98832.56
2022-09-14T15:27:52.656Z,98836.41
2022-09-14T15:31:04.859Z,98847.03
2022-09-14T15:34:19.930Z,98832.00
2022-09-14T15:37:25.662Z,98823.75
2022-09-14T15:40:31.808Z,98849.78
2022-09-14T15:43:39.292Z,98818.31
2022-09-14T15:46:48.970Z,98798.88
2022-09-14T15:50:10.557Z,98809.38
2022-09-14T15:53:49.858Z,98821.63
2022-09-14T15:57:02.283Z,98821.63
2022-09-14T16:00:09.578Z,98817.44
2022-09-14T16:03:19.279Z,98823.25
2022-09-14T16:10:35.145Z,98837.81
2022-09-14T16:17:43.508Z,98841.41
2022-09-14T17:16:42.567Z,98785.16
2022-09-14T17:19:53.326Z,98787.16
2022-09-14T17:22:55.859Z,98771.72
2022-09-14T17:26:01.620Z,98756.00
2022-09-14T17:29:18.325Z,98754.62
2022-09-14T17:32:22.265Z,98754.75
2022-09-14T17:35:27.931Z,98751.53
2022-09-14T17:38:34.964Z,98757.72
2022-09-14T17:41:41.721Z,98754.56
2022-09-14T17:44:51.497Z,98751.34
2022-09-14T17:47:54.875Z,98749.88
2022-09-14T17:50:58.191Z,98737.09
2022-09-14T17:54:04.200Z,98723.94
2022-09-14T17:57:07.289Z,98725.91
2022-09-14T18:00:10.525Z,98728.28
2022-09-14T18:03:13.556Z,98737.19
2022-09-14T18:09:52.827Z,98751.44
2022-09-14T18:12:55.665Z,98735.37
2022-09-14T18:16:11.518Z,98738.97
2022-09-14T18:19:15.149Z,98744.19
2022-09-14T18:22:21.022Z,98744.37
2022-09-14T18:25:25.125Z,98725.03
2022-09-14T18:28:29.188Z,98719.13
2022-09-14T18:31:33.274Z,98722.16
2022-09-14T18:34:39.200Z,98719.22
2022-09-14T18:37:44.750Z,98717.53
2022-09-14T18:40:48.197Z,98729.91
2022-09-14T18:43:54.970Z,98740.75
2022-09-14T18:46:59.742Z,98730.94
2022-09-14T18:50:06.868Z,98738.47
2022-09-14T18:53:13.024Z,98747.22
2022-09-14T18:56:19.397Z,98755.12
2022-09-14T19:06:50.836Z,98745.41
2022-09-14T19:09:59.704Z,98748.16
2022-09-14T19:13:08.350Z,98740.69
2022-09-14T19:23:40.789Z,98715.47
2022-09-14T19:26:46.823Z,98710.63
2022-09-14T19:29:52.671Z,98701.69
2022-09-14T19:32:57.737Z,98699.56
2022-09-14T19:36:09.416Z,98697.06
2022-09-14T19:39:13.219Z,98702.25
2022-09-14T19:42:17.551Z,98689.97
2022-09-14T19:45:21.165Z,98690.22
2022-09-14T19:48:25.681Z,98690.16
2022-09-14T19:51:36.161Z,98678.69
2022-09-14T19:54:43.870Z,98674.03
2022-09-14T19:57:49.868Z,98677.56
2022-09-14T20:00:55.080Z,98684.06
2022-09-14T20:04:00.055Z,98690.97
2022-09-14T20:07:06.234Z,98685.59
2022-09-14T20:10:10.446Z,98681.13
2022-09-14T20:13:14.193Z,98666.94
2022-09-14T20:16:25.967Z,98674.03
2022-09-14T20:19:29.790Z,98674.50
2022-09-14T20:22:33.559Z,98678.12
2022-09-14T20:25:36.456Z,98671.88
2022-09-14T20:28:40.000Z,98653.97
2022-09-14T20:31:42.721Z,98646.31
2022-09-14T20:34:45.973Z,98650.41
2022-09-14T20:37:49.381Z,98648.81
2022-09-14T20:40:59.069Z,98651.84
2022-09-14T20:44:02.230Z,98660.03
2022-09-14T20:47:05.517Z,98652.28
2022-09-14T20:50:09.088Z,98656.91
2022-09-14T20:53:12.569Z,98671.09
2022-09-14T20:56:16.694Z,98667.50
2022-09-14T20:59:22.634Z,98674.06
2022-09-14T21:02:26.540Z,98683.31
2022-09-14T21:05:29.415Z,98691.38
2022-09-14T21:08:33.211Z,98683.81
2022-09-14T21:11:38.752Z,98681.78
2022-09-14T21:14:45.484Z,98684.22
2022-09-14T21:17:49.117Z,98683.06
2022-09-14T21:20:51.779Z,98672.88
2022-09-14T21:23:55.972Z,98669.91
2022-09-14T21:26:58.500Z,98674.03
2022-09-14T21:30:01.494Z,98668.44
2022-09-14T21:33:04.195Z,98676.72
2022-09-14T21:36:08.320Z,98676.44
2022-09-14T21:39:23.691Z,98690.53
2022-09-14T21:50:16.497Z,98707.19
2022-09-14T21:53:19.399Z,98715.22
2022-09-14T21:56:23.536Z,98715.88
2022-09-14T21:59:26.370Z,98717.53
2022-09-14T22:02:28.896Z,98724.12
2022-09-14T22:05:31.753Z,98724.47
2022-09-14T22:08:35.468Z,98727.59
2022-09-14T22:12:05.923Z,98748.59
2022-09-14T22:15:09.304Z,98749.06
2022-09-14T22:18:12.298Z,98768.94
2022-09-14T22:21:15.036Z,98764.06
2022-09-14T22:24:19.965Z,98772.34
2022-09-14T22:27:22.988Z,98760.69
2022-09-14T22:30:26.042Z,98765.78
2022-09-14T22:33:29.102Z,98772.50
2022-09-14T22:36:32.581Z,98778.94
2022-09-14T22:39:35.556Z,98761.03
2022-09-14T22:42:38.433Z,98761.34
2022-09-14T22:45:41.336Z,98748.06
2022-09-14T22:48:44.840Z,98739.19
2022-09-14T22:51:47.801Z,98725.75
2022-09-14T22:54:51.369Z,98715.66
2022-09-14T22:57:53.936Z,98713.84
2022-09-14T23:00:56.846Z,98708.34
2022-09-14T23:04:03.929Z,98708.94
2022-09-14T23:07:08.447Z,98697.50
2022-09-14T23:18:27.977Z,98678.22
2022-09-14T23:21:31.433Z,98663.41
2022-09-14T23:24:33.991Z,98637.59
2022-09-14T23:27:36.809Z,98627.19
2022-09-14T23:30:39.673Z,98640.50
2022-09-14T23:33:42.611Z,98648.47
2022-09-14T23:36:45.292Z,98644.78
2022-09-14T23:39:48.245Z,98620.50
2022-09-14T23:42:50.787Z,98587.66
2022-09-14T23:45:54.375Z,98548.28
2022-09-14T23:49:05.586Z,98493.50
2022-09-14T23:52:23.307Z,98525.06
